Maldives Meteorological Service

TAFS

Station TAF
VRMM
VRMM 162300Z 1700/1806 20006KT 9999 FEW018 SCT130 TEMPO 1700/1005 5000 –SHRA FEW018CB=
VRMH
VRMH 162300Z 1700/1724 18007KT 9999 FEW018 BKN120 TEMPO 1700/1707 5000 -TSRA FEW018CB=
VRMK
VRMK 162300Z 1700/1724 20005KT 9999 FEW018 SCT120 TEMPO 1700/1705 5000 –SHRA FEW018CB=
VRMT
VRMT 162300Z 1700/1724 20005KT 9999 FEW018 SCT120 TEMPO 1704/1708 FEW019CB=
VRMG
VRMG 162300Z 1700/1806 23004KT 9999 FEW019 TEMPO 1700/1705 FEW020CB=